Terminal Aerodrome Forecast
Issued by NWS North Platte, NE

Home | Current Version | Previous Version | Graphics & Text | Print | Product List | Glossary On
Versions: 1 2 3 4 5 6 7 8 9 10 11 12 13 14 15 16 17
714
FTUS43 KLBF 241720
TAFVTN
TAF
KVTN 241720Z 2418/2518 35014KT P6SM BKN120
     FM242300 33010KT P6SM SCT200
     FM250500 29006KT P6SM SCT200
     FM250900 26006KT P6SM BKN200
     FM251400 22006KT P6SM SCT100=

USA.gov is the U.S. government's official web portal to all federal, state and local government web resources and services.